sensor_id;sensor_type;location;lat;lon;timestamp;temperature;humidity
31046;DHT22;17711;54.018;9.300;2023-08-06T00:00:16;18.30;99.90
31046;DHT22;17711;54.018;9.300;2023-08-06T00:02:45;18.30;99.90
31046;DHT22;17711;54.018;9.300;2023-08-06T00:05:15;18.30;99.90
31046;DHT22;17711;54.018;9.300;2023-08-06T00:07:45;18.30;99.90
31046;DHT22;17711;54.018;9.300;2023-08-06T00:10:13;18.20;99.90
31046;DHT22;17711;54.018;9.300;2023-08-06T00:12:41;18.20;99.90
31046;DHT22;17711;54.018;9.300;2023-08-06T00:15:10;18.20;99.90
31046;DHT22;17711;54.018;9.300;2023-08-06T00:17:39;18.20;99.90
31046;DHT22;17711;54.018;9.300;2023-08-06T00:20:07;18.20;99.90
31046;DHT22;17711;54.018;9.300;2023-08-06T00:22:37;18.20;99.90
31046;DHT22;17711;54.018;9.300;2023-08-06T00:25:06;18.20;99.90
31046;DHT22;17711;54.018;9.300;2023-08-06T00:27:34;18.20;99.90
31046;DHT22;17711;54.018;9.300;2023-08-06T00:30:03;18.10;99.90
31046;DHT22;17711;54.018;9.300;2023-08-06T00:32:31;18.20;99.90
31046;DHT22;17711;54.018;9.300;2023-08-06T00:35:00;18.10;99.90
31046;DHT22;17711;54.018;9.300;2023-08-06T00:37:29;18.20;99.90
31046;DHT22;17711;54.018;9.300;2023-08-06T00:39:59;18.10;99.90
31046;DHT22;17711;54.018;9.300;2023-08-06T00:42:27;18.10;99.90
31046;DHT22;17711;54.018;9.300;2023-08-06T00:44:56;18.10;99.90
31046;DHT22;17711;54.018;9.300;2023-08-06T00:47:25;18.00;99.90
31046;DHT22;17711;54.018;9.300;2023-08-06T00:49:53;18.00;99.90
31046;DHT22;17711;54.018;9.300;2023-08-06T00:52:22;18.10;99.90
31046;DHT22;17711;54.018;9.300;2023-08-06T00:54:50;18.10;99.90
31046;DHT22;17711;54.018;9.300;2023-08-06T00:57:20;18.00;99.90
31046;DHT22;17711;54.018;9.300;2023-08-06T00:59:51;18.00;99.90
31046;DHT22;17711;54.018;9.300;2023-08-06T01:02:20;18.00;99.90
31046;DHT22;17711;54.018;9.300;2023-08-06T01:04:49;18.00;99.90
31046;DHT22;17711;54.018;9.300;2023-08-06T01:07:19;18.10;99.90
31046;DHT22;17711;54.018;9.300;2023-08-06T01:09:50;18.00;99.90
31046;DHT22;17711;54.018;9.300;2023-08-06T01:12:29;18.00;99.90
31046;DHT22;17711;54.018;9.300;2023-08-06T01:15:04;17.90;99.90
31046;DHT22;17711;54.018;9.300;2023-08-06T01:17:35;18.00;99.90
31046;DHT22;17711;54.018;9.300;2023-08-06T01:20:04;18.00;99.90
31046;DHT22;17711;54.018;9.300;2023-08-06T01:22:34;18.00;99.90
31046;DHT22;17711;54.018;9.300;2023-08-06T01:25:02;18.00;99.90
31046;DHT22;17711;54.018;9.300;2023-08-06T01:27:32;17.90;99.90
31046;DHT22;17711;54.018;9.300;2023-08-06T01:30:03;17.90;99.90
31046;DHT22;17711;54.018;9.300;2023-08-06T01:32:32;17.80;99.90
31046;DHT22;17711;54.018;9.300;2023-08-06T01:35:02;17.90;99.90
31046;DHT22;17711;54.018;9.300;2023-08-06T01:37:31;17.90;99.90
31046;DHT22;17711;54.018;9.300;2023-08-06T01:40:02;17.90;99.90
31046;DHT22;17711;54.018;9.300;2023-08-06T01:42:33;17.90;99.90
31046;DHT22;17711;54.018;9.300;2023-08-06T01:45:02;17.80;99.90
31046;DHT22;17711;54.018;9.300;2023-08-06T01:47:30;17.80;99.90
31046;DHT22;17711;54.018;9.300;2023-08-06T01:49:59;17.80;99.90
31046;DHT22;17711;54.018;9.300;2023-08-06T01:52:27;17.80;99.90
31046;DHT22;17711;54.018;9.300;2023-08-06T01:54:56;17.80;99.90
31046;DHT22;17711;54.018;9.300;2023-08-06T01:57:26;17.90;99.90
31046;DHT22;17711;54.018;9.300;2023-08-06T01:59:55;17.80;99.90
31046;DHT22;17711;54.018;9.300;2023-08-06T02:02:24;17.80;99.90
31046;DHT22;17711;54.018;9.300;2023-08-06T02:04:52;17.80;99.90
31046;DHT22;17711;54.018;9.300;2023-08-06T02:07:21;17.80;99.90
31046;DHT22;17711;54.018;9.300;2023-08-06T02:09:50;17.80;99.90
31046;DHT22;17711;54.018;9.300;2023-08-06T02:12:18;17.80;99.90
31046;DHT22;17711;54.018;9.300;2023-08-06T02:14:48;17.70;99.90
31046;DHT22;17711;54.018;9.300;2023-08-06T02:17:16;17.70;99.90
31046;DHT22;17711;54.018;9.300;2023-08-06T02:19:45;17.70;99.90
31046;DHT22;17711;54.018;9.300;2023-08-06T02:22:13;17.70;99.90
31046;DHT22;17711;54.018;9.300;2023-08-06T02:24:42;17.80;99.90
31046;DHT22;17711;54.018;9.300;2023-08-06T02:27:10;17.80;99.90
31046;DHT22;17711;54.018;9.300;2023-08-06T02:29:39;17.80;99.90
31046;DHT22;17711;54.018;9.300;2023-08-06T02:32:09;17.80;99.90
31046;DHT22;17711;54.018;9.300;2023-08-06T02:34:38;17.80;99.90
31046;DHT22;17711;54.018;9.300;2023-08-06T02:37:06;17.80;99.90
31046;DHT22;17711;54.018;9.300;2023-08-06T02:39:34;17.80;99.90
31046;DHT22;17711;54.018;9.300;2023-08-06T02:42:06;17.80;99.90
31046;DHT22;17711;54.018;9.300;2023-08-06T02:44:34;17.80;99.90
31046;DHT22;17711;54.018;9.300;2023-08-06T02:47:03;17.80;99.90
31046;DHT22;17711;54.018;9.300;2023-08-06T02:49:33;17.80;99.90
31046;DHT22;17711;54.018;9.300;2023-08-06T02:52:01;17.80;99.90
31046;DHT22;17711;54.018;9.300;2023-08-06T02:54:30;17.70;99.90
31046;DHT22;17711;54.018;9.300;2023-08-06T02:56:58;17.70;99.90
31046;DHT22;17711;54.018;9.300;2023-08-06T02:59:26;17.70;99.90
31046;DHT22;17711;54.018;9.300;2023-08-06T03:01:55;17.70;99.90
31046;DHT22;17711;54.018;9.300;2023-08-06T03:04:23;17.70;99.90
31046;DHT22;17711;54.018;9.300;2023-08-06T03:06:53;17.70;99.90
31046;DHT22;17711;54.018;9.300;2023-08-06T03:09:22;17.70;99.90
31046;DHT22;17711;54.018;9.300;2023-08-06T03:11:50;17.70;99.90
31046;DHT22;17711;54.018;9.300;2023-08-06T03:14:19;17.70;99.90
31046;DHT22;17711;54.018;9.300;2023-08-06T03:16:47;17.60;99.90
31046;DHT22;17711;54.018;9.300;2023-08-06T03:19:16;17.50;99.90
31046;DHT22;17711;54.018;9.300;2023-08-06T03:21:44;17.60;99.90
31046;DHT22;17711;54.018;9.300;2023-08-06T03:24:14;17.50;99.90
31046;DHT22;17711;54.018;9.300;2023-08-06T03:26:42;17.50;99.90
31046;DHT22;17711;54.018;9.300;2023-08-06T03:29:11;17.50;99.90
31046;DHT22;17711;54.018;9.300;2023-08-06T03:31:39;17.50;99.90
31046;DHT22;17711;54.018;9.300;2023-08-06T03:34:08;17.40;99.90
31046;DHT22;17711;54.018;9.300;2023-08-06T03:36:36;17.50;99.90
31046;DHT22;17711;54.018;9.300;2023-08-06T03:39:04;17.50;99.90
31046;DHT22;17711;54.018;9.300;2023-08-06T03:41:34;17.50;99.90
31046;DHT22;17711;54.018;9.300;2023-08-06T03:44:02;17.50;99.90
31046;DHT22;17711;54.018;9.300;2023-08-06T03:46:31;17.50;99.90
31046;DHT22;17711;54.018;9.300;2023-08-06T03:49:01;17.50;99.90
31046;DHT22;17711;54.018;9.300;2023-08-06T03:51:29;17.50;99.90
31046;DHT22;17711;54.018;9.300;2023-08-06T03:53:57;17.40;99.90
31046;DHT22;17711;54.018;9.300;2023-08-06T03:56:26;17.50;99.90
31046;DHT22;17711;54.018;9.300;2023-08-06T03:58:56;17.50;99.90
31046;DHT22;17711;54.018;9.300;2023-08-06T04:01:24;17.40;99.90
31046;DHT22;17711;54.018;9.300;2023-08-06T04:03:53;17.40;99.90
31046;DHT22;17711;54.018;9.300;2023-08-06T04:06:21;17.50;99.90
31046;DHT22;17711;54.018;9.300;2023-08-06T04:08:49;17.50;99.90
31046;DHT22;17711;54.018;9.300;2023-08-06T04:11:18;17.40;99.90
31046;DHT22;17711;54.018;9.300;2023-08-06T04:13:46;17.40;99.90
31046;DHT22;17711;54.018;9.300;2023-08-06T04:16:16;17.50;99.90
31046;DHT22;17711;54.018;9.300;2023-08-06T04:18:45;17.50;99.90
31046;DHT22;17711;54.018;9.300;2023-08-06T04:21:13;17.50;99.90
31046;DHT22;17711;54.018;9.300;2023-08-06T04:23:42;17.40;99.90
31046;DHT22;17711;54.018;9.300;2023-08-06T04:26:10;17.50;99.90
31046;DHT22;17711;54.018;9.300;2023-08-06T04:28:38;17.50;99.90
31046;DHT22;17711;54.018;9.300;2023-08-06T04:31:07;17.50;99.90
31046;DHT22;17711;54.018;9.300;2023-08-06T04:33:37;17.50;99.90
31046;DHT22;17711;54.018;9.300;2023-08-06T04:36:06;17.60;99.90
31046;DHT22;17711;54.018;9.300;2023-08-06T04:38:34;17.60;99.90
31046;DHT22;17711;54.018;9.300;2023-08-06T04:41:02;17.60;99.90
31046;DHT22;17711;54.018;9.300;2023-08-06T04:43:31;17.60;99.90
31046;DHT22;17711;54.018;9.300;2023-08-06T04:45:59;17.60;99.90
31046;DHT22;17711;54.018;9.300;2023-08-06T04:48:28;17.60;99.90
31046;DHT22;17711;54.018;9.300;2023-08-06T04:50:57;17.60;99.90
31046;DHT22;17711;54.018;9.300;2023-08-06T04:53:26;17.60;99.90
31046;DHT22;17711;54.018;9.300;2023-08-06T04:55:54;17.60;99.90
31046;DHT22;17711;54.018;9.300;2023-08-06T04:58:23;17.50;99.90
31046;DHT22;17711;54.018;9.300;2023-08-06T05:00:52;17.60;99.90
31046;DHT22;17711;54.018;9.300;2023-08-06T05:03:21;17.60;99.90
31046;DHT22;17711;54.018;9.300;2023-08-06T05:05:49;17.60;99.90
31046;DHT22;17711;54.018;9.300;2023-08-06T05:08:19;17.60;99.90
31046;DHT22;17711;54.018;9.300;2023-08-06T05:10:48;17.60;99.90
31046;DHT22;17711;54.018;9.300;2023-08-06T05:13:16;17.60;99.90
31046;DHT22;17711;54.018;9.300;2023-08-06T05:15:44;17.60;99.90
31046;DHT22;17711;54.018;9.300;2023-08-06T05:18:13;17.50;99.90
31046;DHT22;17711;54.018;9.300;2023-08-06T05:20:42;17.60;99.90
31046;DHT22;17711;54.018;9.300;2023-08-06T05:23:10;17.70;99.90
31046;DHT22;17711;54.018;9.300;2023-08-06T05:25:40;17.70;99.90
31046;DHT22;17711;54.018;9.300;2023-08-06T05:28:08;17.60;99.90
31046;DHT22;17711;54.018;9.300;2023-08-06T05:30:38;17.60;99.90
31046;DHT22;17711;54.018;9.300;2023-08-06T05:33:07;17.60;99.90
31046;DHT22;17711;54.018;9.300;2023-08-06T05:35:35;17.50;99.90
31046;DHT22;17711;54.018;9.300;2023-08-06T05:38:04;17.50;99.90
31046;DHT22;17711;54.018;9.300;2023-08-06T05:40:33;17.50;99.90
31046;DHT22;17711;54.018;9.300;2023-08-06T05:43:03;17.50;99.90
31046;DHT22;17711;54.018;9.300;2023-08-06T05:45:31;17.50;99.90
31046;DHT22;17711;54.018;9.300;2023-08-06T05:47:59;17.50;99.90
31046;DHT22;17711;54.018;9.300;2023-08-06T05:50:28;17.50;99.90
31046;DHT22;17711;54.018;9.300;2023-08-06T05:52:56;17.50;99.90
31046;DHT22;17711;54.018;9.300;2023-08-06T05:55:27;17.50;99.90
31046;DHT22;17711;54.018;9.300;2023-08-06T05:57:56;17.50;99.90
31046;DHT22;17711;54.018;9.300;2023-08-06T06:00:26;17.50;99.90
31046;DHT22;17711;54.018;9.300;2023-08-06T06:02:54;17.50;99.90
31046;DHT22;17711;54.018;9.300;2023-08-06T06:05:22;17.60;99.90
31046;DHT22;17711;54.018;9.300;2023-08-06T06:07:51;17.60;99.90
31046;DHT22;17711;54.018;9.300;2023-08-06T06:10:20;17.60;99.90
31046;DHT22;17711;54.018;9.300;2023-08-06T06:12:48;17.60;99.90
31046;DHT22;17711;54.018;9.300;2023-08-06T06:15:16;17.60;99.90
31046;DHT22;17711;54.018;9.300;2023-08-06T06:17:46;17.60;99.90
31046;DHT22;17711;54.018;9.300;2023-08-06T06:20:15;17.70;99.90
31046;DHT22;17711;54.018;9.300;2023-08-06T06:22:43;17.70;99.90
31046;DHT22;17711;54.018;9.300;2023-08-06T06:25:12;17.80;99.90
31046;DHT22;17711;54.018;9.300;2023-08-06T06:27:41;17.80;99.90
31046;DHT22;17711;54.018;9.300;2023-08-06T06:30:10;17.80;99.90
31046;DHT22;17711;54.018;9.300;2023-08-06T06:32:40;17.90;99.90
31046;DHT22;17711;54.018;9.300;2023-08-06T06:35:10;17.90;99.90
31046;DHT22;17711;54.018;9.300;2023-08-06T06:37:39;17.90;99.90
31046;DHT22;17711;54.018;9.300;2023-08-06T06:40:07;18.00;99.90
31046;DHT22;17711;54.018;9.300;2023-08-06T06:42:36;18.00;99.90
31046;DHT22;17711;54.018;9.300;2023-08-06T06:45:05;18.00;99.90
31046;DHT22;17711;54.018;9.300;2023-08-06T06:47:33;18.10;99.90
31046;DHT22;17711;54.018;9.300;2023-08-06T06:50:01;18.10;99.90
31046;DHT22;17711;54.018;9.300;2023-08-06T06:52:31;18.20;99.90
31046;DHT22;17711;54.018;9.300;2023-08-06T06:55:00;18.20;99.90
31046;DHT22;17711;54.018;9.300;2023-08-06T06:57:28;18.30;99.90
31046;DHT22;17711;54.018;9.300;2023-08-06T06:59:57;18.30;99.90
31046;DHT22;17711;54.018;9.300;2023-08-06T07:02:25;18.30;99.90
31046;DHT22;17711;54.018;9.300;2023-08-06T07:04:53;18.30;99.90
31046;DHT22;17711;54.018;9.300;2023-08-06T07:07:22;18.40;99.90
31046;DHT22;17711;54.018;9.300;2023-08-06T07:09:52;18.30;99.90
31046;DHT22;17711;54.018;9.300;2023-08-06T07:12:20;18.30;99.90
31046;DHT22;17711;54.018;9.300;2023-08-06T07:14:51;18.40;99.90
31046;DHT22;17711;54.018;9.300;2023-08-06T07:17:19;18.40;99.90
31046;DHT22;17711;54.018;9.300;2023-08-06T07:19:48;18.50;99.90
31046;DHT22;17711;54.018;9.300;2023-08-06T07:22:17;18.60;99.90
31046;DHT22;17711;54.018;9.300;2023-08-06T07:24:45;18.60;99.90
31046;DHT22;17711;54.018;9.300;2023-08-06T07:27:15;18.70;99.90
31046;DHT22;17711;54.018;9.300;2023-08-06T07:29:44;18.80;99.90
31046;DHT22;17711;54.018;9.300;2023-08-06T07:32:12;18.90;99.90
31046;DHT22;17711;54.018;9.300;2023-08-06T07:34:40;19.00;99.90
31046;DHT22;17711;54.018;9.300;2023-08-06T07:37:09;19.10;99.90
31046;DHT22;17711;54.018;9.300;2023-08-06T07:39:37;19.20;99.90
31046;DHT22;17711;54.018;9.300;2023-08-06T07:42:06;19.20;99.90
31046;DHT22;17711;54.018;9.300;2023-08-06T07:44:36;19.30;99.90
31046;DHT22;17711;54.018;9.300;2023-08-06T07:47:07;19.30;99.90
31046;DHT22;17711;54.018;9.300;2023-08-06T07:49:35;19.40;99.90
31046;DHT22;17711;54.018;9.300;2023-08-06T07:52:03;19.40;99.90
31046;DHT22;17711;54.018;9.300;2023-08-06T07:54:32;19.50;99.90
31046;DHT22;17711;54.018;9.300;2023-08-06T07:57:00;19.50;99.90
31046;DHT22;17711;54.018;9.300;2023-08-06T07:59:29;19.60;99.90
31046;DHT22;17711;54.018;9.300;2023-08-06T08:02:00;19.60;99.90
31046;DHT22;17711;54.018;9.300;2023-08-06T08:04:28;19.70;99.90
31046;DHT22;17711;54.018;9.300;2023-08-06T08:06:56;19.70;99.90
31046;DHT22;17711;54.018;9.300;2023-08-06T08:09:25;19.80;99.90
31046;DHT22;17711;54.018;9.300;2023-08-06T08:11:53;19.90;99.90
31046;DHT22;17711;54.018;9.300;2023-08-06T08:14:25;20.00;99.90
31046;DHT22;17711;54.018;9.300;2023-08-06T08:16:54;20.20;99.90
31046;DHT22;17711;54.018;9.300;2023-08-06T08:19:24;20.30;99.90
31046;DHT22;17711;54.018;9.300;2023-08-06T08:21:52;20.30;99.90
31046;DHT22;17711;54.018;9.300;2023-08-06T08:24:21;20.40;99.90
31046;DHT22;17711;54.018;9.300;2023-08-06T08:26:51;20.50;99.90
31046;DHT22;17711;54.018;9.300;2023-08-06T08:29:20;20.50;99.90
31046;DHT22;17711;54.018;9.300;2023-08-06T08:31:49;20.60;99.90
31046;DHT22;17711;54.018;9.300;2023-08-06T08:34:18;20.70;99.90
31046;DHT22;17711;54.018;9.300;2023-08-06T08:36:48;20.90;99.90
31046;DHT22;17711;54.018;9.300;2023-08-06T08:39:17;21.00;99.90
31046;DHT22;17711;54.018;9.300;2023-08-06T08:41:45;21.00;99.90
31046;DHT22;17711;54.018;9.300;2023-08-06T08:44:13;21.10;99.90
31046;DHT22;17711;54.018;9.300;2023-08-06T08:46:44;21.30;99.90
31046;DHT22;17711;54.018;9.300;2023-08-06T08:49:14;21.40;99.90
31046;DHT22;17711;54.018;9.300;2023-08-06T08:51:43;21.50;99.90
31046;DHT22;17711;54.018;9.300;2023-08-06T08:54:13;21.50;99.90
31046;DHT22;17711;54.018;9.300;2023-08-06T08:56:41;21.40;99.90
31046;DHT22;17711;54.018;9.300;2023-08-06T08:59:10;21.50;99.90
31046;DHT22;17711;54.018;9.300;2023-08-06T09:01:38;21.40;99.90
31046;DHT22;17711;54.018;9.300;2023-08-06T09:04:08;21.20;99.90
31046;DHT22;17711;54.018;9.300;2023-08-06T09:06:38;21.20;99.90
31046;DHT22;17711;54.018;9.300;2023-08-06T09:09:08;21.10;99.90
31046;DHT22;17711;54.018;9.300;2023-08-06T09:11:39;21.00;99.90
31046;DHT22;17711;54.018;9.300;2023-08-06T09:14:08;21.00;99.90
31046;DHT22;17711;54.018;9.300;2023-08-06T09:16:37;21.00;99.90
31046;DHT22;17711;54.018;9.300;2023-08-06T09:19:09;21.10;99.90
31046;DHT22;17711;54.018;9.300;2023-08-06T09:21:39;21.10;99.90
31046;DHT22;17711;54.018;9.300;2023-08-06T09:24:08;21.10;99.90
31046;DHT22;17711;54.018;9.300;2023-08-06T09:26:38;21.10;99.90
31046;DHT22;17711;54.018;9.300;2023-08-06T09:29:07;21.10;99.90
31046;DHT22;17711;54.018;9.300;2023-08-06T09:31:41;21.10;99.90
31046;DHT22;17711;54.018;9.300;2023-08-06T09:34:10;21.00;99.90
31046;DHT22;17711;54.018;9.300;2023-08-06T09:36:40;21.10;99.90
31046;DHT22;17711;54.018;9.300;2023-08-06T09:39:14;21.10;99.90
31046;DHT22;17711;54.018;9.300;2023-08-06T09:41:45;21.10;99.90
31046;DHT22;17711;54.018;9.300;2023-08-06T09:44:15;21.20;99.90
31046;DHT22;17711;54.018;9.300;2023-08-06T09:46:47;21.30;99.90
31046;DHT22;17711;54.018;9.300;2023-08-06T09:49:17;21.50;99.90
31046;DHT22;17711;54.018;9.300;2023-08-06T09:51:49;21.40;99.90
31046;DHT22;17711;54.018;9.300;2023-08-06T09:54:20;21.40;99.90
31046;DHT22;17711;54.018;9.300;2023-08-06T09:56:55;21.50;99.90
31046;DHT22;17711;54.018;9.300;2023-08-06T09:59:24;21.50;99.90
31046;DHT22;17711;54.018;9.300;2023-08-06T10:01:53;21.50;99.90
31046;DHT22;17711;54.018;9.300;2023-08-06T10:04:22;21.40;99.90
31046;DHT22;17711;54.018;9.300;2023-08-06T10:07:01;21.50;99.90
31046;DHT22;17711;54.018;9.300;2023-08-06T10:09:29;21.60;99.90
31046;DHT22;17711;54.018;9.300;2023-08-06T10:12:00;21.70;99.90
31046;DHT22;17711;54.018;9.300;2023-08-06T10:14:28;21.80;99.90
31046;DHT22;17711;54.018;9.300;2023-08-06T10:16:58;21.80;99.90
31046;DHT22;17711;54.018;9.300;2023-08-06T10:19:27;21.80;99.90
31046;DHT22;17711;54.018;9.300;2023-08-06T10:22:10;21.70;99.90
31046;DHT22;17711;54.018;9.300;2023-08-06T10:24:45;21.70;99.90
31046;DHT22;17711;54.018;9.300;2023-08-06T10:27:16;21.80;99.90
31046;DHT22;17711;54.018;9.300;2023-08-06T10:29:47;21.90;99.90
31046;DHT22;17711;54.018;9.300;2023-08-06T10:32:15;21.90;99.90
31046;DHT22;17711;54.018;9.300;2023-08-06T10:34:57;22.00;99.90
31046;DHT22;17711;54.018;9.300;2023-08-06T10:37:36;22.00;99.90
31046;DHT22;17711;54.018;9.300;2023-08-06T10:40:06;22.00;99.90
31046;DHT22;17711;54.018;9.300;2023-08-06T10:42:36;22.10;99.90
31046;DHT22;17711;54.018;9.300;2023-08-06T10:45:11;22.20;99.90
31046;DHT22;17711;54.018;9.300;2023-08-06T10:47:40;22.30;99.90
31046;DHT22;17711;54.018;9.300;2023-08-06T10:50:11;22.30;99.90
31046;DHT22;17711;54.018;9.300;2023-08-06T10:52:39;22.20;99.90
31046;DHT22;17711;54.018;9.300;2023-08-06T10:55:08;22.10;99.90
31046;DHT22;17711;54.018;9.300;2023-08-06T10:57:38;21.90;99.90
31046;DHT22;17711;54.018;9.300;2023-08-06T11:00:07;21.80;99.90
31046;DHT22;17711;54.018;9.300;2023-08-06T11:02:42;21.70;99.90
31046;DHT22;17711;54.018;9.300;2023-08-06T11:05:12;21.60;99.90
31046;DHT22;17711;54.018;9.300;2023-08-06T11:07:40;21.60;99.90
31046;DHT22;17711;54.018;9.300;2023-08-06T11:10:10;21.40;99.90
31046;DHT22;17711;54.018;9.300;2023-08-06T11:12:40;21.50;99.90
31046;DHT22;17711;54.018;9.300;2023-08-06T11:15:09;21.50;99.90
31046;DHT22;17711;54.018;9.300;2023-08-06T11:17:39;21.70;99.90
31046;DHT22;17711;54.018;9.300;2023-08-06T11:20:08;21.70;99.90
31046;DHT22;17711;54.018;9.300;2023-08-06T11:22:37;21.90;99.90
31046;DHT22;17711;54.018;9.300;2023-08-06T11:25:06;21.90;99.90
31046;DHT22;17711;54.018;9.300;2023-08-06T11:27:34;21.80;99.90
31046;DHT22;17711;54.018;9.300;2023-08-06T11:30:05;21.70;99.90
31046;DHT22;17711;54.018;9.300;2023-08-06T11:32:33;21.80;99.90
31046;DHT22;17711;54.018;9.300;2023-08-06T11:35:12;21.70;99.90
31046;DHT22;17711;54.018;9.300;2023-08-06T11:37:43;21.70;99.90
31046;DHT22;17711;54.018;9.300;2023-08-06T11:40:13;21.60;99.90
31046;DHT22;17711;54.018;9.300;2023-08-06T11:42:42;21.50;99.90
31046;DHT22;17711;54.018;9.300;2023-08-06T11:45:12;21.50;99.90
31046;DHT22;17711;54.018;9.300;2023-08-06T11:47:40;21.50;99.90
31046;DHT22;17711;54.018;9.300;2023-08-06T11:50:09;21.50;99.90
31046;DHT22;17711;54.018;9.300;2023-08-06T11:52:52;21.50;99.90
31046;DHT22;17711;54.018;9.300;2023-08-06T11:55:22;21.40;99.90
31046;DHT22;17711;54.018;9.300;2023-08-06T11:57:51;21.30;99.90
31046;DHT22;17711;54.018;9.300;2023-08-06T12:00:22;21.20;99.90
31046;DHT22;17711;54.018;9.300;2023-08-06T12:02:51;21.20;99.90
31046;DHT22;17711;54.018;9.300;2023-08-06T12:05:22;21.10;99.90
31046;DHT22;17711;54.018;9.300;2023-08-06T12:07:52;21.20;99.90
31046;DHT22;17711;54.018;9.300;2023-08-06T12:10:21;21.20;99.90
31046;DHT22;17711;54.018;9.300;2023-08-06T12:12:50;21.20;99.90
31046;DHT22;17711;54.018;9.300;2023-08-06T12:15:20;21.20;99.90
31046;DHT22;17711;54.018;9.300;2023-08-06T12:17:49;21.30;99.90
31046;DHT22;17711;54.018;9.300;2023-08-06T12:20:17;21.20;99.90
31046;DHT22;17711;54.018;9.300;2023-08-06T12:22:46;21.20;99.90
31046;DHT22;17711;54.018;9.300;2023-08-06T12:25:14;21.20;99.90
31046;DHT22;17711;54.018;9.300;2023-08-06T12:27:43;21.30;99.90
31046;DHT22;17711;54.018;9.300;2023-08-06T12:30:12;21.40;99.90
31046;DHT22;17711;54.018;9.300;2023-08-06T12:32:42;21.40;99.90
31046;DHT22;17711;54.018;9.300;2023-08-06T12:35:11;21.50;99.90
31046;DHT22;17711;54.018;9.300;2023-08-06T12:37:41;21.60;99.90
31046;DHT22;17711;54.018;9.300;2023-08-06T12:40:10;21.60;99.90
31046;DHT22;17711;54.018;9.300;2023-08-06T12:42:42;21.60;99.90
31046;DHT22;17711;54.018;9.300;2023-08-06T12:45:10;21.60;99.90
31046;DHT22;17711;54.018;9.300;2023-08-06T12:47:39;21.40;99.90
31046;DHT22;17711;54.018;9.300;2023-08-06T12:50:09;21.40;99.90
31046;DHT22;17711;54.018;9.300;2023-08-06T12:52:38;21.30;99.90
31046;DHT22;17711;54.018;9.300;2023-08-06T12:55:06;21.40;99.90
31046;DHT22;17711;54.018;9.300;2023-08-06T12:57:35;21.30;99.90
31046;DHT22;17711;54.018;9.300;2023-08-06T13:00:23;21.30;99.90
31046;DHT22;17711;54.018;9.300;2023-08-06T13:02:52;21.20;99.90
31046;DHT22;17711;54.018;9.300;2023-08-06T13:05:22;21.30;99.90
31046;DHT22;17711;54.018;9.300;2023-08-06T13:07:50;21.30;99.90
31046;DHT22;17711;54.018;9.300;2023-08-06T13:10:19;21.40;99.90
31046;DHT22;17711;54.018;9.300;2023-08-06T13:12:48;21.50;99.90
31046;DHT22;17711;54.018;9.300;2023-08-06T13:15:16;21.50;99.90
31046;DHT22;17711;54.018;9.300;2023-08-06T13:17:48;21.50;99.90
31046;DHT22;17711;54.018;9.300;2023-08-06T13:20:16;21.40;99.90
31046;DHT22;17711;54.018;9.300;2023-08-06T13:22:48;21.30;99.90
31046;DHT22;17711;54.018;9.300;2023-08-06T13:25:20;21.20;99.90
31046;DHT22;17711;54.018;9.300;2023-08-06T13:27:48;21.20;99.90
31046;DHT22;17711;54.018;9.300;2023-08-06T13:30:17;21.20;99.90
31046;DHT22;17711;54.018;9.300;2023-08-06T13:32:46;21.20;99.90
31046;DHT22;17711;54.018;9.300;2023-08-06T13:35:14;21.10;99.90
31046;DHT22;17711;54.018;9.300;2023-08-06T13:37:42;21.10;99.90
31046;DHT22;17711;54.018;9.300;2023-08-06T13:40:13;21.10;99.90
31046;DHT22;17711;54.018;9.300;2023-08-06T13:42:41;21.10;99.90
31046;DHT22;17711;54.018;9.300;2023-08-06T13:45:09;21.10;99.90
31046;DHT22;17711;54.018;9.300;2023-08-06T13:47:38;21.10;99.90
31046;DHT22;17711;54.018;9.300;2023-08-06T13:50:07;21.10;99.90
31046;DHT22;17711;54.018;9.300;2023-08-06T13:52:36;21.10;99.90
31046;DHT22;17711;54.018;9.300;2023-08-06T13:55:04;21.10;99.90
31046;DHT22;17711;54.018;9.300;2023-08-06T13:57:34;21.00;99.90
31046;DHT22;17711;54.018;9.300;2023-08-06T14:00:03;21.10;99.90
31046;DHT22;17711;54.018;9.300;2023-08-06T14:02:32;21.10;99.90
31046;DHT22;17711;54.018;9.300;2023-08-06T14:05:01;21.20;99.90
31046;DHT22;17711;54.018;9.300;2023-08-06T14:07:29;21.30;99.90
31046;DHT22;17711;54.018;9.300;2023-08-06T14:09:57;21.40;99.90
31046;DHT22;17711;54.018;9.300;2023-08-06T14:12:26;21.50;99.90
31046;DHT22;17711;54.018;9.300;2023-08-06T14:14:55;21.60;99.90
31046;DHT22;17711;54.018;9.300;2023-08-06T14:17:24;21.70;99.90
31046;DHT22;17711;54.018;9.300;2023-08-06T14:19:53;21.80;99.90
31046;DHT22;17711;54.018;9.300;2023-08-06T14:22:21;21.80;99.90
31046;DHT22;17711;54.018;9.300;2023-08-06T14:24:50;21.80;99.90
31046;DHT22;17711;54.018;9.300;2023-08-06T14:27:19;21.90;99.90
31046;DHT22;17711;54.018;9.300;2023-08-06T14:29:47;21.80;99.90
31046;DHT22;17711;54.018;9.300;2023-08-06T14:32:17;21.90;99.90
31046;DHT22;17711;54.018;9.300;2023-08-06T14:34:46;21.80;99.90
31046;DHT22;17711;54.018;9.300;2023-08-06T14:37:14;21.90;99.90
31046;DHT22;17711;54.018;9.300;2023-08-06T14:39:43;21.70;99.90
31046;DHT22;17711;54.018;9.300;2023-08-06T14:42:12;21.70;99.90
31046;DHT22;17711;54.018;9.300;2023-08-06T14:44:40;21.70;99.90
31046;DHT22;17711;54.018;9.300;2023-08-06T14:47:09;21.60;99.90
31046;DHT22;17711;54.018;9.300;2023-08-06T14:49:39;21.60;99.90
31046;DHT22;17711;54.018;9.300;2023-08-06T14:52:07;21.60;99.90
31046;DHT22;17711;54.018;9.300;2023-08-06T14:54:35;21.50;99.90
31046;DHT22;17711;54.018;9.300;2023-08-06T14:57:04;21.60;99.90
31046;DHT22;17711;54.018;9.300;2023-08-06T14:59:33;21.70;99.90
31046;DHT22;17711;54.018;9.300;2023-08-06T15:02:02;21.90;99.90
31046;DHT22;17711;54.018;9.300;2023-08-06T15:04:30;21.90;99.90
31046;DHT22;17711;54.018;9.300;2023-08-06T15:07:00;22.00;99.90
31046;DHT22;17711;54.018;9.300;2023-08-06T15:09:29;22.10;99.90
31046;DHT22;17711;54.018;9.300;2023-08-06T15:12:04;22.20;99.90
31046;DHT22;17711;54.018;9.300;2023-08-06T15:14:32;22.20;99.90
31046;DHT22;17711;54.018;9.300;2023-08-06T15:17:01;22.20;99.90
31046;DHT22;17711;54.018;9.300;2023-08-06T15:19:29;22.20;99.90
31046;DHT22;17711;54.018;9.300;2023-08-06T15:21:58;22.20;99.90
31046;DHT22;17711;54.018;9.300;2023-08-06T15:24:27;22.20;99.90
31046;DHT22;17711;54.018;9.300;2023-08-06T15:26:56;22.20;99.90
31046;DHT22;17711;54.018;9.300;2023-08-06T15:29:24;22.20;99.90
31046;DHT22;17711;54.018;9.300;2023-08-06T15:31:54;22.20;99.90
31046;DHT22;17711;54.018;9.300;2023-08-06T15:34:22;22.20;99.90
31046;DHT22;17711;54.018;9.300;2023-08-06T15:36:50;22.20;99.90
31046;DHT22;17711;54.018;9.300;2023-08-06T15:39:19;22.20;99.90
31046;DHT22;17711;54.018;9.300;2023-08-06T15:41:49;22.30;99.90